Latest Weather Observations for Cairns

IDQ60801

Issued at 1:32 pm EST Friday 27 March 2015 (issued every 30 minutes, with the page automatically refreshed every 10 minutes)

About weather observations | Map of weather stations | Latest weather observations for QLD | Other Formats
Station Details ID: 031011 Name: CAIRNS AERO Lat: -16.87 Lon: 145.75 Height: 2.22 m
Data from the previous 72 hours. | See also: Recent months at Cairns
Date/Time
EST
Temp
°C
App
Temp
°C
Dew
Point
Rel
Hum
%
Delta-T
°C
Wind Press
QNH
hPa
Press
MSL
hPa
Rain
since 9 am
mm
Dir
 
Spd
km/h
Gust
km/h
Spd
kts
Gust
kts
27/01:00pm 31.0 31.2 20.6 54 6.9 E 20 32 11 17 1014.4 - 0.0
27/12:30pm 31.3 31.1 20.6 53 7.1 ENE 22 30 12 16 1014.8 - 0.0
27/11:30am 30.3 32.3 21.5 59 5.9 E 13 20 7 11 1015.7 - 0.0
27/11:00am 30.0 31.2 21.5 60 5.7 ESE 17 22 9 12 1016.2 - 0.0
27/10:30am 29.6 30.2 21.4 61 5.5 SSE 20 32 11 17 1016.3 - 0.0
27/09:30am 28.4 29.6 20.7 63 5.1 S 15 24 8 13 1016.4 - 0.0
27/08:30am 27.3 29.4 20.1 64 4.7 S 9 15 5 8 1016.2 - 0.0
27/08:00am 26.0 28.0 20.7 72 3.5 S 11 17 6 9 1016.0 - 0.0
27/07:30am 24.4 25.3 20.9 81 2.3 SE 17 20 9 11 1015.8 - 0.0
27/07:00am 24.1 25.0 20.9 82 2.1 SE 17 20 9 11 1015.5 - 0.0
27/06:30am 25.0 26.6 20.7 77 2.8 SSE 13 19 7 10 1015.4 - 0.0
27/06:00am 25.2 27.6 20.8 76 2.9 S 9 17 5 9 1015.3 1015.2 0.0
27/05:30am 24.8 26.4 20.8 78 2.6 SSE 13 19 7 10 1015.0 - 0.0
27/05:00am 23.9 24.9 21.0 84 1.9 SE 17 22 9 12 1014.8 - 0.0
27/04:30am 23.2 24.2 21.1 88 1.4 SE 17 19 9 10 1014.4 - 0.0
27/03:30am 23.7 26.0 21.3 86 1.6 ESE 11 17 6 9 1014.4 - 0.0
27/03:00am 23.6 25.4 21.2 86 1.6 SSE 13 17 7 9 1014.6 1014.5 0.0
27/02:00am 24.1 26.9 21.5 85 1.7 SSE 9 13 5 7 1015.0 - 0.0
27/01:30am 24.3 26.9 21.9 86 1.6 SE 11 13 6 7 1015.3 - 0.0
27/01:00am 24.9 27.8 21.7 82 2.1 SE 9 13 5 7 1015.7 - 0.0
27/12:30am 25.7 28.7 21.3 76 2.9 SSE 7 11 4 6 1016.0 - 0.0
 
Date/Time
EST
Temp
°C
App
Temp
°C
Dew
Point
Rel
Hum
%
Delta-T
°C
Wind Press
QNH
hPa
Press
MSL
hPa
Rain
since 9 am
mm
Dir
 
Spd
km/h
Gust
km/h
Spd
kts
Gust
kts
26/11:30pm 25.6 30.2 21.8 79 2.5 CALM 0 4 0 2 1016.4 - 0.0
26/11:00pm 25.8 29.2 21.7 78 2.7 SSW 6 9 3 5 1016.6 - 0.0
26/10:30pm 26.4 29.5 21.4 74 3.3 SW 7 11 4 6 1016.4 - 0.0
26/10:00pm 26.6 29.0 21.6 74 3.3 S 11 19 6 10 1016.3 - 0.0
26/09:30pm 26.5 29.4 21.7 75 3.2 S 9 15 5 8 1016.0 - 0.0
26/09:00pm 26.6 29.8 21.6 74 3.3 SSW 7 13 4 7 1015.7 1015.6 0.0
26/08:30pm 27.1 29.6 21.7 72 3.6 S 11 17 6 9 1015.7 - 0.0
26/08:00pm 26.7 29.8 22.2 76 3.0 S 9 13 5 7 1015.3 - 0.0
26/07:30pm 26.7 29.8 22.2 76 3.0 SSE 9 15 5 8 1014.9 - 0.0
26/07:00pm 26.9 29.8 21.7 73 3.5 S 9 15 5 8 1014.6 - 0.0
26/06:30pm 27.7 28.2 21.2 67 4.3 S 20 24 11 13 1014.3 - 0.0
26/06:00pm 28.4 28.2 20.5 62 5.2 SE 22 28 12 15 1014.0 1013.9 0.0
26/05:30pm 29.3 29.0 20.4 58 5.9 SE 22 30 12 16 1013.7 - 0.0
26/05:00pm 29.9 30.0 20.4 56 6.3 E 20 28 11 15 1013.4 - 0.0
26/04:30pm 30.7 31.5 20.6 54 6.7 ENE 17 26 9 14 1013.0 - 0.0
26/04:00pm 31.0 30.2 18.5 47 8.1 ENE 20 26 11 14 1012.9 - 0.0
26/03:30pm 31.6 31.3 19.6 49 7.9 E 20 28 11 15 1012.9 - 0.0
26/03:00pm 31.8 31.3 18.7 45 8.5 E 19 30 10 16 1012.9 1012.8 0.0
26/02:30pm 32.4 31.3 17.8 41 9.4 ESE 20 26 11 14 1013.2 - 0.0
26/02:00pm 31.9 31.7 17.7 42 9.1 ESE 15 24 8 13 1013.4 - 0.0
26/01:30pm 31.9 31.7 18.6 45 8.6 ESE 17 26 9 14 1013.8 - 0.0
26/01:00pm 31.6 31.5 18.8 46 8.3 ESE 17 28 9 15 1014.2 - 0.0
26/12:30pm 31.6 32.1 19.2 47 8.1 E 15 26 8 14 1014.7 - 0.0
26/12:00pm 31.6 31.4 18.4 45 8.5 ESE 17 24 9 13 1015.0 1014.9 0.0
26/11:30am 31.1 30.9 18.6 47 8.1 SE 17 28 9 15 1015.5 - 0.0
26/11:00am 30.3 31.2 20.8 56 6.3 SSE 17 26 9 14 1015.9 - 0.0
26/10:30am 30.3 31.6 20.8 56 6.3 SSE 15 24 8 13 1016.0 - 0.0
26/10:00am 29.7 31.2 21.2 60 5.7 SSE 15 22 8 12 1016.1 - 0.0
26/09:30am 28.5 30.2 21.6 66 4.6 SSE 15 26 8 14 1016.2 - 0.0
26/09:00am 28.6 30.8 21.9 67 4.5 SSE 13 19 7 10 1016.1 1016.0 0.0
26/08:30am 27.6 30.8 22.3 73 3.6 WSW 9 15 5 8 1016.0 - 0.0
26/08:00am 26.4 29.1 22.2 78 2.8 SE 11 15 6 8 1015.8 - 0.0
26/07:30am 25.2 27.7 22.4 84 1.9 SE 13 17 7 9 1015.6 - 0.0
26/07:00am 24.0 26.4 22.2 90 1.2 SSE 13 17 7 9 1015.4 - 0.0
26/06:30am 23.6 27.3 22.2 92 0.9 S 6 11 3 6 1015.1 - 0.0
26/06:00am 23.9 26.3 22.3 91 1.1 SE 13 17 7 9 1014.8 1014.7 0.0
26/05:30am 24.3 27.2 22.4 89 1.3 SE 11 15 6 8 1014.8 - 0.0
26/05:00am 24.5 26.9 22.3 87 1.5 SSE 13 15 7 8 1014.6 - 0.0
26/04:30am 24.3 26.4 22.5 90 1.2 SE 15 17 8 9 1014.3 - 0.0
26/04:00am 24.7 27.3 22.6 88 1.4 SE 13 17 7 9 1014.1 - 0.0
26/03:30am 24.8 27.8 22.7 88 1.4 SSE 11 15 6 8 1014.3 - 0.0
26/03:00am 25.0 27.7 22.9 88 1.4 SE 13 13 7 7 1014.4 1014.3 0.0
26/02:30am 25.1 28.6 22.9 87 1.5 SE 9 11 5 6 1014.5 - 0.0
26/02:00am 25.4 29.2 22.7 85 1.8 SE 7 11 4 6 1014.7 - 0.0
26/01:30am 25.8 29.2 22.7 83 2.1 S 9 11 5 6 1014.9 - 0.0
26/01:00am 25.2 29.3 23.0 87 1.5 SSE 6 7 3 4 1015.0 - 0.0
26/12:30am 25.4 29.3 23.0 86 1.6 ESE 7 9 4 5 1015.3 - 0.0
26/12:00am 26.0 29.6 23.1 84 2.0 SE 9 11 5 6 1015.5 1015.4 0.0
 
Date/Time
EST
Temp
°C
App
Temp
°C
Dew
Point
Rel
Hum
%
Delta-T
°C
Wind Press
QNH
hPa
Press
MSL
hPa
Rain
since 9 am
mm
Dir
 
Spd
km/h
Gust
km/h
Spd
kts
Gust
kts
25/11:30pm 26.0 30.0 23.1 84 2.0 SSE 7 11 4 6 1015.6 - 0.0
25/11:00pm 26.3 30.4 23.2 83 2.1 SSE 7 9 4 5 1015.8 - 0.0
25/10:30pm 26.7 30.4 23.2 81 2.4 S 9 11 5 6 1015.7 - 0.0
25/10:00pm 26.6 30.7 23.2 81 2.3 SSE 7 9 4 5 1015.6 - 0.0
25/09:30pm 27.1 31.3 23.4 80 2.5 SSE 7 9 4 5 1015.5 - 0.0
25/09:00pm 27.4 31.5 23.3 78 2.8 SE 7 11 4 6 1015.2 1015.1 0.0
25/08:30pm 27.8 31.9 23.3 76 3.1 SE 7 13 4 7 1014.9 - 0.0
25/08:00pm 27.8 31.7 22.9 74 3.3 S 7 9 4 5 1014.7 - 0.0
25/07:30pm 27.9 31.6 22.6 73 3.6 S 7 11 4 6 1014.3 - 0.0
25/07:00pm 27.9 31.4 22.9 74 3.4 SSE 9 13 5 7 1013.9 - 0.0
25/06:30pm 28.4 30.9 22.5 70 4.0 E 13 17 7 9 1013.7 - 0.0
25/06:00pm 28.9 30.9 22.2 67 4.5 E 15 19 8 10 1013.3 1013.2 0.0
25/05:30pm 29.6 31.4 22.5 65 4.8 ENE 17 22 9 12 1012.8 - 0.0
25/05:00pm 29.6 31.9 22.7 66 4.7 NNE 15 20 8 11 1012.5 - 0.0
25/04:30pm 29.8 32.5 22.9 66 4.7 NE 13 19 7 10 1012.4 - 0.0
25/04:00pm 29.6 32.3 22.9 67 4.6 NNE 13 19 7 10 1012.6 - 0.0
25/03:30pm 29.6 32.1 22.5 65 4.8 NNE 13 19 7 10 1012.5 - 0.0
25/03:00pm 29.7 32.1 22.3 64 5.0 NE 13 20 7 11 1012.5 1012.4 0.0
25/02:30pm 30.7 33.3 23.3 64 5.1 NNE 15 20 8 11 1012.7 - 0.0
25/02:00pm 29.9 31.8 22.7 65 4.9 NE 17 22 9 12 1012.9 - 0.0
25/01:30pm 29.9 31.6 22.4 64 5.1 NNE 17 24 9 13 1013.2 - 0.0
25/01:00pm 29.9 31.5 22.1 63 5.3 N 17 22 9 12 1013.6 - 0.0
25/12:30pm 30.5 32.5 22.2 61 5.6 NNE 15 19 8 10 1014.1 - 0.0
25/12:00pm 30.4 31.6 21.5 59 6.0 NNE 17 22 9 12 1014.6 1014.5 0.0
25/11:30am 30.6 33.0 22.2 61 5.7 N 13 19 7 10 1015.1 - 0.0
25/11:00am 30.0 31.9 22.0 62 5.4 NE 15 20 8 11 1015.5 - 0.0
25/10:30am 30.4 34.2 22.8 64 5.2 E 7 13 4 7 1015.8 - 0.0
25/10:00am 29.3 32.7 22.0 64 4.9 E 7 15 4 8 1016.0 - 0.0
25/09:30am 28.9 33.9 23.2 71 3.9 NNE 2 7 1 4 1016.2 - 0.0
25/09:00am 27.3 31.4 22.9 77 3.0 NW 6 11 3 6 1016.1 1016.0 0.2
25/08:30am 27.1 30.2 22.2 74 3.3 SE 9 11 5 6 1016.0 - 0.2
25/08:00am 26.1 29.2 22.2 79 2.6 SSE 9 13 5 7 1015.7 - 0.2
25/07:30am 24.6 29.8 22.8 90 1.2 CALM 0 0 0 0 1015.5 - 0.2
25/07:00am 23.4 28.5 22.7 96 0.5 CALM 0 0 0 0 1015.2 - 0.2
25/06:30am 22.5 27.2 21.9 96 0.4 CALM 0 0 0 0 1015.0 - 0.2
25/06:00am 22.8 26.5 22.2 96 0.4 WSW 6 9 3 5 1014.7 1014.6 0.2
25/05:30am 22.7 27.5 22.2 97 0.3 CALM 0 0 0 0 1014.4 - 0.2
25/05:00am 22.5 27.2 22.0 97 0.3 CALM 0 0 0 0 1014.2 - 0.2
25/04:30am 23.0 27.8 22.2 95 0.5 CALM 0 0 0 0 1014.0 - 0.2
25/04:00am 23.0 27.8 22.2 95 0.5 CALM 0 0 0 0 1013.9 - 0.2
25/03:30am 23.1 28.0 22.3 95 0.5 CALM 0 0 0 0 1013.7 - 0.2
25/03:00am 22.9 27.7 22.1 95 0.5 CALM 0 0 0 0 1013.6 1013.5 0.2
25/02:30am 23.1 28.0 22.3 95 0.5 CALM 0 0 0 0 1013.8 - 0.2
25/02:00am 23.1 28.1 22.5 96 0.4 CALM 0 0 0 0 1014.0 - 0.2
25/01:30am 23.1 28.1 22.5 96 0.4 CALM 0 0 0 0 1014.1 - 0.2
25/01:00am 23.2 28.2 22.5 96 0.5 CALM 0 0 0 0 1014.3 - 0.2
25/12:30am 23.5 28.6 22.6 95 0.6 CALM 0 0 0 0 1014.6 - 0.2
25/12:00am 23.7 28.9 22.8 95 0.6 CALM 0 0 0 0 1014.9 1014.8 0.2
 
Date/Time
EST
Temp
°C
App
Temp
°C
Dew
Point
Rel
Hum
%
Delta-T
°C
Wind Press
QNH
hPa
Press
MSL
hPa
Rain
since 9 am
mm
Dir
 
Spd
km/h
Gust
km/h
Spd
kts
Gust
kts
24/11:30pm 23.8 29.0 22.8 94 0.7 CALM 0 0 0 0 1015.0 - 0.2
24/11:00pm 23.9 29.1 22.9 94 0.7 CALM 0 0 0 0 1015.1 - 0.2
24/10:30pm 24.3 29.5 22.8 91 1.0 CALM 0 0 0 0 1015.3 - 0.2
24/10:00pm 24.4 29.6 22.9 91 1.0 CALM 0 0 0 0 1015.2 - 0.2
24/09:30pm 24.4 29.5 22.6 90 1.2 CALM 0 0 0 0 1015.1 - 0.2
24/09:00pm 24.3 29.3 22.5 90 1.2 CALM 0 0 0 0 1015.0 1014.9 0.2
24/08:30pm 25.6 30.2 22.5 83 2.1 SE 2 6 1 3 1014.6 - 0.2
24/08:00pm 25.9 29.5 22.3 80 2.4 S 7 9 4 5 1014.1 - 0.2
24/07:30pm 26.0 29.8 22.4 80 2.4 S 6 9 3 5 1013.7 - 0.2
24/07:00pm 26.9 30.1 22.3 76 3.1 SE 9 11 5 6 1013.5 - 0.2
24/06:30pm 27.7 30.1 22.2 72 3.7 E 13 19 7 10 1013.2 - 0.2
24/06:00pm 28.3 30.0 21.7 67 4.4 E 15 20 8 11 1012.9 1012.8 0.2
24/05:30pm 29.3 31.9 22.7 67 4.5 ENE 13 17 7 9 1012.5 - 0.2
24/05:00pm 29.2 31.6 22.9 69 4.3 NE 15 20 8 11 1012.5 - 0.2
24/04:30pm 29.2 31.6 22.9 69 4.3 NE 15 20 8 11 1012.4 - 0.2
24/04:00pm 29.6 32.0 22.9 67 4.6 NE 15 20 8 11 1012.2 - 0.2
24/03:30pm 29.0 31.0 22.2 66 4.6 NE 15 19 8 10 1012.4 - 0.2
24/03:00pm 30.0 32.3 22.8 65 4.9 NE 15 20 8 11 1012.4 1012.3 0.2
24/02:30pm 29.9 32.2 23.4 68 4.5 NE 17 26 9 14 1012.6 - 0.2
24/02:00pm 29.8 32.8 23.4 68 4.4 ENE 13 20 7 11 1013.0 - 0.2

Other Formats:

Comma delimited format used in spreadsheet applications
http://www.bom.gov.au/fwo/IDQ60801/IDQ60801.94287.axf

JavaScript Object Notation format (JSON) in row-major order
http://www.bom.gov.au/fwo/IDQ60801/IDQ60801.94287.json